^^
Station Historical Data
 
Daily Summary for February 13, 2016 Units:  Metric    English   Both
« Previous Day
Next Day »
Daily Weekly Monthly Yearly Custom
  Current: High: Low: Average:
Temperature: 1.6 °C 1.8 °C 1.1 °C 1.4 °C
Dew Point: 0.9 °C 0.9 °C 0.2 °C 0.6 °C
Humidity: 95% 95% 94% 95%
Wind Speed: 0.2km/h 3.2km/h 0.0km/h 0.9km/h
Wind Gust: 3.2km/h 14.5km/h - -
WindSSW - - SW
Pressure: 995.8 hPa 995.8 hPa 994.1 hPa -
Precipitation: 7.1 mm      
Historical Graphs
 
 
Tabular Data for February 13, 2016
Time Temperature Dew Point Pressure Wind Wind Speed Wind Gust Humidity Rainfall Rate (Hourly) solar Conditions
00:05 1.7 °C 0.8 °C 994.1 hPa Calm     94% 0.0 mm 0 W/m2
00:10 1.7 °C 0.8 °C 994.1 hPa Calm     94% 0.3 mm 0 W/m2
00:20 1.7 °C 0.8 °C 994.1 hPa Calm     94% 0.5 mm 0 W/m2
00:25 1.8 °C 0.9 °C 994.1 hPa Calm     94% 0.5 mm 0 W/m2
00:30 1.8 °C 0.9 °C 994.1 hPa Calm     94% 0.8 mm 0 W/m2
00:35 1.8 °C 0.9 °C 994.1 hPa Calm     94% 0.8 mm 0 W/m2
00:40 1.8 °C 0.9 °C 994.1 hPa Calm     94% 0.8 mm 0 W/m2
00:45 1.8 °C 0.9 °C 994.1 hPa Calm     94% 1.0 mm 0 W/m2
00:50 1.8 °C 0.9 °C 994.1 hPa Calm     94% 1.3 mm 0 W/m2
00:55 1.8 °C 0.9 °C 994.5 hPa Calm     94% 1.3 mm 0 W/m2
01:00 1.8 °C 0.9 °C 994.5 hPa Calm   1.6 km/h 94% 1.3 mm 0 W/m2
01:10 1.8 °C 0.9 °C 994.5 hPa SSW 0.3 km/h 4.8 km/h 94% 1.5 mm 0 W/m2
01:15 1.8 °C 0.9 °C 994.5 hPa Calm   1.6 km/h 94% 1.5 mm 0 W/m2
01:20 1.7 °C 0.8 °C 994.5 hPa Calm     94% 2.0 mm 0 W/m2
01:25 1.7 °C 0.8 °C 994.5 hPa Calm     94% 2.0 mm 0 W/m2
01:30 1.6 °C 0.7 °C 994.5 hPa Calm   1.6 km/h 94% 1.8 mm 0 W/m2
01:35 1.6 °C 0.7 °C 994.5 hPa Calm   1.6 km/h 94% 1.8 mm 0 W/m2
01:50 1.3 °C 0.4 °C 994.5 hPa SSW 0.2 km/h 1.6 km/h 94% 2.0 mm 0 W/m2
01:55 1.3 °C 0.4 °C 994.5 hPa SSW 0.5 km/h 3.2 km/h 94% 2.3 mm 0 W/m2
02:00 1.2 °C 0.3 °C 994.5 hPa SSW 0.3 km/h 6.4 km/h 94% 2.3 mm 0 W/m2
02:05 1.2 °C 0.3 °C 994.5 hPa SSW 0.2 km/h 3.2 km/h 94% 2.3 mm 0 W/m2
02:10 1.2 °C 0.3 °C 994.5 hPa SSW 0.3 km/h 4.8 km/h 94% 2.0 mm 0 W/m2
02:15 1.2 °C 0.3 °C 994.5 hPa WSW 0.6 km/h 6.4 km/h 94% 2.0 mm 0 W/m2
02:20 1.1 °C 0.2 °C 994.5 hPa SW 1.1 km/h 6.4 km/h 94% 1.5 mm 0 W/m2
02:25 1.1 °C 0.2 °C 994.5 hPa SW 1.0 km/h 4.8 km/h 94% 1.5 mm 0 W/m2
02:30 1.1 °C 0.2 °C 994.5 hPa SW 0.6 km/h 6.4 km/h 94% 1.5 mm 0 W/m2
02:35 1.2 °C 0.3 °C 994.5 hPa SW 1.8 km/h 14.5 km/h 94% 1.3 mm 0 W/m2
02:40 1.2 °C 0.3 °C 994.5 hPa SSW 3.2 km/h 9.7 km/h 94% 1.3 mm 0 W/m2
02:45 1.2 °C 0.5 °C 994.5 hPa WSW 1.8 km/h 6.4 km/h 95% 1.3 mm 0 W/m2
02:50 1.2 °C 0.5 °C 994.8 hPa SW 1.0 km/h 8.0 km/h 95% 1.3 mm 0 W/m2
02:55 1.2 °C 0.5 °C 994.8 hPa WSW 1.8 km/h 8.0 km/h 95% 1.0 mm 0 W/m2
03:00 1.2 °C 0.5 °C 994.8 hPa SW 1.8 km/h 8.0 km/h 95% 0.8 mm 0 W/m2
03:05 1.3 °C 0.6 °C 994.8 hPa SW 1.0 km/h 9.7 km/h 95% 0.5 mm 0 W/m2
03:10 1.3 °C 0.6 °C 994.8 hPa WSW 1.3 km/h 6.4 km/h 95% 0.8 mm 0 W/m2
03:15 1.3 °C 0.6 °C 994.8 hPa SW 0.2 km/h 6.4 km/h 95% 0.5 mm 0 W/m2
03:20 1.3 °C 0.6 °C 995.1 hPa SSW 1.3 km/h 11.3 km/h 95% 0.8 mm 0 W/m2
03:25 1.3 °C 0.6 °C 994.8 hPa West 1.8 km/h 12.9 km/h 95% 0.8 mm 0 W/m2
03:30 1.3 °C 0.6 °C 995.1 hPa West 2.6 km/h 9.7 km/h 95% 0.5 mm 0 W/m2
03:35 1.3 °C 0.6 °C 995.1 hPa SW 2.6 km/h 9.7 km/h 95% 0.5 mm 0 W/m2
03:40 1.3 °C 0.6 °C 995.1 hPa West 2.3 km/h 11.3 km/h 95% 0.8 mm 0 W/m2
03:45 1.3 °C 0.6 °C 995.1 hPa West 1.1 km/h 9.7 km/h 95% 0.8 mm 0 W/m2
03:50 1.2 °C 0.5 °C 995.1 hPa West 2.3 km/h 11.3 km/h 95% 1.0 mm 0 W/m2
03:55 1.2 °C 0.5 °C 995.1 hPa WSW 1.1 km/h 6.4 km/h 95% 1.0 mm 0 W/m2
04:05 1.2 °C 0.5 °C 995.1 hPa SW 0.6 km/h 8.0 km/h 95% 1.3 mm 0 W/m2
04:10 1.2 °C 0.5 °C 995.1 hPa WSW 1.6 km/h 14.5 km/h 95% 1.0 mm 0 W/m2
04:15 1.2 °C 0.5 °C 995.5 hPa SSW 1.0 km/h 6.4 km/h 95% 1.0 mm 0 W/m2
04:20 1.3 °C 0.6 °C 995.5 hPa WSW 2.1 km/h 8.0 km/h 95% 1.0 mm 0 W/m2
04:25 1.3 °C 0.6 °C 995.5 hPa SW 1.9 km/h 11.3 km/h 95% 1.0 mm 0 W/m2
04:30 1.3 °C 0.6 °C 995.5 hPa SW 2.3 km/h 8.0 km/h 95% 1.3 mm 0 W/m2
04:35 1.3 °C 0.6 °C 995.5 hPa SSW 1.0 km/h 6.4 km/h 95% 1.3 mm 0 W/m2
04:40 1.3 °C 0.6 °C 995.5 hPa SW 1.9 km/h 9.7 km/h 95% 1.3 mm 0 W/m2
04:45 1.3 °C 0.6 °C 995.5 hPa West 1.9 km/h 8.0 km/h 95% 1.3 mm 0 W/m2
04:50 1.3 °C 0.6 °C 995.5 hPa SSW 1.4 km/h 8.0 km/h 95% 1.3 mm 0 W/m2
04:55 1.3 °C 0.6 °C 995.5 hPa WSW 1.0 km/h 6.4 km/h 95% 1.3 mm 0 W/m2
05:00 1.3 °C 0.6 °C 995.5 hPa WNW 1.9 km/h 8.0 km/h 95% 1.3 mm 0 W/m2
05:05 1.4 °C 0.7 °C 995.8 hPa West 0.3 km/h 4.8 km/h 95% 1.3 mm 0 W/m2
05:10 1.4 °C 0.7 °C 995.5 hPa SSW 1.3 km/h 8.0 km/h 95% 1.3 mm 0 W/m2
05:15 1.5 °C 0.8 °C 995.5 hPa SSW 0.2 km/h 4.8 km/h 95% 1.3 mm 0 W/m2
05:20 1.6 °C 0.9 °C 995.8 hPa SSW 0.6 km/h 6.4 km/h 95% 1.3 mm 0 W/m2
05:25 1.6 °C 0.9 °C 995.8 hPa SSW 0.2 km/h 3.2 km/h 95% 1.3 mm 0 W/m2
Tägerwilen, Thurgau, Switzerland
Compliments of Weather Underground